sensor_id;sensor_type;location;lat;lon;timestamp;P1;durP1;ratioP1;P2;durP2;ratioP2
37221;SDS011;23119;51.842;-2.230;2023-05-07T00:01:12;37.70;;;17.83;;
37221;SDS011;23119;51.842;-2.230;2023-05-07T00:03:38;38.25;;;19.83;;
37221;SDS011;23119;51.842;-2.230;2023-05-07T00:06:04;40.05;;;19.23;;
37221;SDS011;23119;51.842;-2.230;2023-05-07T00:08:32;36.35;;;20.48;;
37221;SDS011;23119;51.842;-2.230;2023-05-07T00:10:58;34.97;;;19.00;;
37221;SDS011;23119;51.842;-2.230;2023-05-07T00:13:26;42.85;;;21.42;;
37221;SDS011;23119;51.842;-2.230;2023-05-07T00:15:52;45.53;;;22.08;;
37221;SDS011;23119;51.842;-2.230;2023-05-07T00:18:20;38.08;;;20.60;;
37221;SDS011;23119;51.842;-2.230;2023-05-07T00:20:47;39.08;;;20.60;;
37221;SDS011;23119;51.842;-2.230;2023-05-07T00:23:13;46.47;;;21.60;;
37221;SDS011;23119;51.842;-2.230;2023-05-07T00:25:41;42.38;;;20.10;;
37221;SDS011;23119;51.842;-2.230;2023-05-07T00:28:06;44.75;;;20.58;;
37221;SDS011;23119;51.842;-2.230;2023-05-07T00:30:34;42.40;;;19.85;;
37221;SDS011;23119;51.842;-2.230;2023-05-07T00:33:03;41.85;;;19.92;;
37221;SDS011;23119;51.842;-2.230;2023-05-07T00:35:31;47.15;;;22.48;;
37221;SDS011;23119;51.842;-2.230;2023-05-07T00:37:57;41.28;;;21.10;;
37221;SDS011;23119;51.842;-2.230;2023-05-07T00:40:22;48.35;;;20.77;;
37221;SDS011;23119;51.842;-2.230;2023-05-07T00:42:51;48.47;;;21.50;;
37221;SDS011;23119;51.842;-2.230;2023-05-07T00:45:22;62.05;;;22.80;;
37221;SDS011;23119;51.842;-2.230;2023-05-07T00:47:55;47.40;;;21.02;;
37221;SDS011;23119;51.842;-2.230;2023-05-07T00:52:52;54.05;;;21.60;;
37221;SDS011;23119;51.842;-2.230;2023-05-07T00:55:18;50.83;;;21.15;;
37221;SDS011;23119;51.842;-2.230;2023-05-07T00:57:47;55.40;;;21.45;;
37221;SDS011;23119;51.842;-2.230;2023-05-07T01:00:17;52.20;;;22.45;;
37221;SDS011;23119;51.842;-2.230;2023-05-07T01:02:49;45.75;;;20.70;;
37221;SDS011;23119;51.842;-2.230;2023-05-07T01:05:16;48.80;;;22.13;;
37221;SDS011;23119;51.842;-2.230;2023-05-07T01:07:42;57.90;;;21.52;;
37221;SDS011;23119;51.842;-2.230;2023-05-07T01:10:09;65.18;;;23.98;;
37221;SDS011;23119;51.842;-2.230;2023-05-07T01:12:36;58.50;;;22.25;;
37221;SDS011;23119;51.842;-2.230;2023-05-07T01:15:04;52.00;;;21.17;;
37221;SDS011;23119;51.842;-2.230;2023-05-07T01:17:35;56.75;;;20.27;;
37221;SDS011;23119;51.842;-2.230;2023-05-07T01:20:04;53.20;;;21.67;;
37221;SDS011;23119;51.842;-2.230;2023-05-07T01:22:34;56.20;;;22.42;;
37221;SDS011;23119;51.842;-2.230;2023-05-07T01:25:02;58.83;;;22.75;;
37221;SDS011;23119;51.842;-2.230;2023-05-07T01:27:32;62.05;;;23.40;;
37221;SDS011;23119;51.842;-2.230;2023-05-07T01:30:02;62.95;;;22.23;;
37221;SDS011;23119;51.842;-2.230;2023-05-07T01:32:36;75.53;;;20.20;;
37221;SDS011;23119;51.842;-2.230;2023-05-07T01:35:02;57.65;;;17.42;;
37221;SDS011;23119;51.842;-2.230;2023-05-07T01:37:32;45.85;;;16.02;;
37221;SDS011;23119;51.842;-2.230;2023-05-07T01:40:01;34.13;;;14.85;;
37221;SDS011;23119;51.842;-2.230;2023-05-07T01:42:28;41.10;;;14.63;;
37221;SDS011;23119;51.842;-2.230;2023-05-07T01:44:54;31.17;;;14.55;;
37221;SDS011;23119;51.842;-2.230;2023-05-07T01:47:20;38.60;;;13.65;;
37221;SDS011;23119;51.842;-2.230;2023-05-07T01:49:46;51.25;;;15.10;;
37221;SDS011;23119;51.842;-2.230;2023-05-07T01:52:13;42.80;;;14.45;;
37221;SDS011;23119;51.842;-2.230;2023-05-07T01:54:39;37.80;;;15.35;;
37221;SDS011;23119;51.842;-2.230;2023-05-07T01:57:05;32.60;;;12.95;;
37221;SDS011;23119;51.842;-2.230;2023-05-07T01:59:33;33.53;;;12.68;;
37221;SDS011;23119;51.842;-2.230;2023-05-07T02:01:59;34.10;;;12.63;;
37221;SDS011;23119;51.842;-2.230;2023-05-07T02:04:25;34.40;;;12.50;;
37221;SDS011;23119;51.842;-2.230;2023-05-07T02:06:51;28.48;;;11.57;;
37221;SDS011;23119;51.842;-2.230;2023-05-07T02:09:18;23.23;;;10.82;;
37221;SDS011;23119;51.842;-2.230;2023-05-07T02:11:44;31.33;;;12.02;;
37221;SDS011;23119;51.842;-2.230;2023-05-07T02:14:10;35.63;;;12.70;;
37221;SDS011;23119;51.842;-2.230;2023-05-07T02:16:36;38.10;;;12.20;;
37221;SDS011;23119;51.842;-2.230;2023-05-07T02:19:04;39.05;;;13.07;;
37221;SDS011;23119;51.842;-2.230;2023-05-07T02:21:30;32.08;;;13.18;;
37221;SDS011;23119;51.842;-2.230;2023-05-07T02:23:58;34.63;;;13.05;;
37221;SDS011;23119;51.842;-2.230;2023-05-07T02:26:24;26.23;;;9.52;;
37221;SDS011;23119;51.842;-2.230;2023-05-07T02:28:50;29.77;;;11.65;;
37221;SDS011;23119;51.842;-2.230;2023-05-07T02:31:19;31.77;;;11.50;;
37221;SDS011;23119;51.842;-2.230;2023-05-07T02:33:45;30.35;;;12.80;;
37221;SDS011;23119;51.842;-2.230;2023-05-07T02:36:11;36.70;;;12.23;;
37221;SDS011;23119;51.842;-2.230;2023-05-07T02:38:37;34.60;;;12.80;;
37221;SDS011;23119;51.842;-2.230;2023-05-07T02:41:03;30.02;;;12.05;;
37221;SDS011;23119;51.842;-2.230;2023-05-07T02:43:29;34.80;;;11.50;;
37221;SDS011;23119;51.842;-2.230;2023-05-07T02:46:07;33.35;;;11.52;;
37221;SDS011;23119;51.842;-2.230;2023-05-07T02:48:34;33.60;;;11.35;;
37221;SDS011;23119;51.842;-2.230;2023-05-07T02:51:02;34.63;;;12.10;;
37221;SDS011;23119;51.842;-2.230;2023-05-07T02:53:30;30.90;;;11.82;;
37221;SDS011;23119;51.842;-2.230;2023-05-07T02:55:56;33.75;;;11.68;;
37221;SDS011;23119;51.842;-2.230;2023-05-07T02:58:23;31.73;;;11.27;;
37221;SDS011;23119;51.842;-2.230;2023-05-07T03:00:49;30.58;;;11.63;;
37221;SDS011;23119;51.842;-2.230;2023-05-07T03:03:15;32.85;;;10.35;;
37221;SDS011;23119;51.842;-2.230;2023-05-07T03:05:41;29.25;;;10.13;;
37221;SDS011;23119;51.842;-2.230;2023-05-07T03:08:07;29.25;;;10.05;;
37221;SDS011;23119;51.842;-2.230;2023-05-07T03:10:33;28.60;;;10.07;;
37221;SDS011;23119;51.842;-2.230;2023-05-07T03:12:59;25.27;;;9.38;;
37221;SDS011;23119;51.842;-2.230;2023-05-07T03:15:25;23.25;;;8.68;;
37221;SDS011;23119;51.842;-2.230;2023-05-07T03:17:51;22.15;;;9.18;;
37221;SDS011;23119;51.842;-2.230;2023-05-07T03:20:16;24.83;;;7.95;;
37221;SDS011;23119;51.842;-2.230;2023-05-07T03:22:42;28.17;;;9.80;;
37221;SDS011;23119;51.842;-2.230;2023-05-07T03:25:08;26.45;;;8.65;;
37221;SDS011;23119;51.842;-2.230;2023-05-07T03:27:34;22.92;;;8.57;;
37221;SDS011;23119;51.842;-2.230;2023-05-07T03:30:00;22.88;;;7.50;;
37221;SDS011;23119;51.842;-2.230;2023-05-07T03:32:25;25.50;;;8.50;;
37221;SDS011;23119;51.842;-2.230;2023-05-07T03:34:54;32.63;;;9.70;;
37221;SDS011;23119;51.842;-2.230;2023-05-07T03:37:20;30.02;;;9.38;;
37221;SDS011;23119;51.842;-2.230;2023-05-07T03:39:46;34.60;;;9.95;;
37221;SDS011;23119;51.842;-2.230;2023-05-07T03:42:13;36.95;;;10.77;;
37221;SDS011;23119;51.842;-2.230;2023-05-07T03:44:39;30.17;;;10.32;;
37221;SDS011;23119;51.842;-2.230;2023-05-07T03:47:05;35.50;;;11.30;;
37221;SDS011;23119;51.842;-2.230;2023-05-07T03:49:31;35.67;;;11.18;;
37221;SDS011;23119;51.842;-2.230;2023-05-07T03:51:59;32.13;;;10.88;;
37221;SDS011;23119;51.842;-2.230;2023-05-07T03:54:27;30.65;;;11.02;;
37221;SDS011;23119;51.842;-2.230;2023-05-07T03:56:53;34.22;;;10.93;;
37221;SDS011;23119;51.842;-2.230;2023-05-07T03:59:19;29.13;;;10.15;;
37221;SDS011;23119;51.842;-2.230;2023-05-07T04:01:45;33.17;;;10.00;;
37221;SDS011;23119;51.842;-2.230;2023-05-07T04:04:10;33.88;;;10.57;;
37221;SDS011;23119;51.842;-2.230;2023-05-07T04:06:36;34.70;;;11.43;;
37221;SDS011;23119;51.842;-2.230;2023-05-07T04:09:02;27.27;;;10.00;;
37221;SDS011;23119;51.842;-2.230;2023-05-07T04:11:28;34.15;;;11.50;;
37221;SDS011;23119;51.842;-2.230;2023-05-07T04:13:54;31.48;;;9.70;;
37221;SDS011;23119;51.842;-2.230;2023-05-07T04:16:22;34.85;;;10.38;;
37221;SDS011;23119;51.842;-2.230;2023-05-07T04:18:48;31.98;;;10.15;;
37221;SDS011;23119;51.842;-2.230;2023-05-07T04:21:14;31.25;;;10.32;;
37221;SDS011;23119;51.842;-2.230;2023-05-07T04:23:40;28.38;;;10.02;;
37221;SDS011;23119;51.842;-2.230;2023-05-07T04:26:06;34.35;;;9.27;;
37221;SDS011;23119;51.842;-2.230;2023-05-07T04:28:32;26.23;;;9.02;;
37221;SDS011;23119;51.842;-2.230;2023-05-07T04:30:59;24.35;;;9.00;;
37221;SDS011;23119;51.842;-2.230;2023-05-07T04:33:25;29.42;;;8.38;;
37221;SDS011;23119;51.842;-2.230;2023-05-07T04:35:51;20.83;;;7.03;;
37221;SDS011;23119;51.842;-2.230;2023-05-07T04:38:16;19.67;;;7.53;;
37221;SDS011;23119;51.842;-2.230;2023-05-07T04:40:43;21.73;;;6.97;;
37221;SDS011;23119;51.842;-2.230;2023-05-07T04:43:09;21.58;;;7.53;;
37221;SDS011;23119;51.842;-2.230;2023-05-07T04:45:35;21.98;;;6.93;;
37221;SDS011;23119;51.842;-2.230;2023-05-07T04:48:01;21.63;;;7.20;;
37221;SDS011;23119;51.842;-2.230;2023-05-07T04:50:27;22.35;;;7.75;;
37221;SDS011;23119;51.842;-2.230;2023-05-07T04:52:53;23.15;;;7.85;;
37221;SDS011;23119;51.842;-2.230;2023-05-07T04:55:19;17.52;;;6.97;;
37221;SDS011;23119;51.842;-2.230;2023-05-07T04:57:47;23.63;;;7.25;;
37221;SDS011;23119;51.842;-2.230;2023-05-07T05:00:15;19.45;;;7.53;;
37221;SDS011;23119;51.842;-2.230;2023-05-07T05:02:46;20.50;;;8.02;;
37221;SDS011;23119;51.842;-2.230;2023-05-07T05:05:15;18.60;;;7.15;;
37221;SDS011;23119;51.842;-2.230;2023-05-07T05:07:40;17.10;;;6.20;;
37221;SDS011;23119;51.842;-2.230;2023-05-07T05:10:08;16.50;;;4.72;;
37221;SDS011;23119;51.842;-2.230;2023-05-07T05:12:34;14.27;;;4.63;;
37221;SDS011;23119;51.842;-2.230;2023-05-07T05:15:03;14.50;;;5.50;;
37221;SDS011;23119;51.842;-2.230;2023-05-07T05:17:31;11.88;;;4.63;;
37221;SDS011;23119;51.842;-2.230;2023-05-07T05:19:59;10.73;;;3.42;;
37221;SDS011;23119;51.842;-2.230;2023-05-07T05:22:25;13.88;;;4.03;;
37221;SDS011;23119;51.842;-2.230;2023-05-07T05:24:51;11.73;;;4.20;;
37221;SDS011;23119;51.842;-2.230;2023-05-07T05:27:17;9.07;;;2.88;;
37221;SDS011;23119;51.842;-2.230;2023-05-07T05:29:43;11.00;;;2.80;;
37221;SDS011;23119;51.842;-2.230;2023-05-07T05:32:08;7.75;;;2.78;;
37221;SDS011;23119;51.842;-2.230;2023-05-07T05:34:34;6.97;;;2.40;;
37221;SDS011;23119;51.842;-2.230;2023-05-07T05:37:00;6.43;;;2.47;;
37221;SDS011;23119;51.842;-2.230;2023-05-07T05:39:29;7.82;;;2.50;;
37221;SDS011;23119;51.842;-2.230;2023-05-07T05:41:55;8.80;;;3.00;;
37221;SDS011;23119;51.842;-2.230;2023-05-07T05:44:21;4.90;;;1.52;;
37221;SDS011;23119;51.842;-2.230;2023-05-07T05:46:47;5.68;;;2.15;;
37221;SDS011;23119;51.842;-2.230;2023-05-07T05:49:14;7.47;;;1.80;;
37221;SDS011;23119;51.842;-2.230;2023-05-07T05:51:40;5.15;;;1.70;;
37221;SDS011;23119;51.842;-2.230;2023-05-07T05:54:06;8.98;;;1.70;;
37221;SDS011;23119;51.842;-2.230;2023-05-07T05:56:32;5.28;;;1.80;;
37221;SDS011;23119;51.842;-2.230;2023-05-07T05:58:58;3.22;;;1.65;;
37221;SDS011;23119;51.842;-2.230;2023-05-07T06:01:23;4.90;;;1.23;;
37221;SDS011;23119;51.842;-2.230;2023-05-07T06:03:49;4.05;;;1.70;;
37221;SDS011;23119;51.842;-2.230;2023-05-07T06:06:15;7.55;;;1.60;;
37221;SDS011;23119;51.842;-2.230;2023-05-07T06:08:41;7.57;;;1.70;;
37221;SDS011;23119;51.842;-2.230;2023-05-07T06:11:07;5.55;;;1.30;;
37221;SDS011;23119;51.842;-2.230;2023-05-07T06:13:33;5.88;;;1.73;;
37221;SDS011;23119;51.842;-2.230;2023-05-07T06:16:04;3.60;;;1.38;;
37221;SDS011;23119;51.842;-2.230;2023-05-07T06:18:33;5.72;;;2.03;;
37221;SDS011;23119;51.842;-2.230;2023-05-07T06:21:01;4.72;;;1.88;;
37221;SDS011;23119;51.842;-2.230;2023-05-07T06:23:26;3.22;;;1.45;;
37221;SDS011;23119;51.842;-2.230;2023-05-07T06:25:54;5.45;;;1.10;;
37221;SDS011;23119;51.842;-2.230;2023-05-07T06:28:20;5.35;;;1.15;;
37221;SDS011;23119;51.842;-2.230;2023-05-07T06:30:46;3.08;;;1.30;;
37221;SDS011;23119;51.842;-2.230;2023-05-07T06:33:15;5.90;;;1.17;;
37221;SDS011;23119;51.842;-2.230;2023-05-07T06:35:41;5.97;;;1.40;;
37221;SDS011;23119;51.842;-2.230;2023-05-07T06:38:09;2.67;;;1.15;;
37221;SDS011;23119;51.842;-2.230;2023-05-07T06:40:35;3.42;;;1.38;;
37221;SDS011;23119;51.842;-2.230;2023-05-07T06:43:01;4.28;;;1.13;;
37221;SDS011;23119;51.842;-2.230;2023-05-07T06:45:27;3.38;;;1.27;;
37221;SDS011;23119;51.842;-2.230;2023-05-07T06:47:52;4.07;;;1.23;;
37221;SDS011;23119;51.842;-2.230;2023-05-07T06:50:18;4.00;;;0.82;;
37221;SDS011;23119;51.842;-2.230;2023-05-07T06:52:47;3.85;;;1.10;;
37221;SDS011;23119;51.842;-2.230;2023-05-07T06:55:13;3.70;;;1.00;;
37221;SDS011;23119;51.842;-2.230;2023-05-07T06:57:38;4.45;;;0.93;;
37221;SDS011;23119;51.842;-2.230;2023-05-07T07:00:04;4.50;;;1.40;;
37221;SDS011;23119;51.842;-2.230;2023-05-07T07:02:33;3.13;;;0.90;;
37221;SDS011;23119;51.842;-2.230;2023-05-07T07:04:59;3.63;;;0.98;;
37221;SDS011;23119;51.842;-2.230;2023-05-07T07:07:25;4.20;;;1.30;;
37221;SDS011;23119;51.842;-2.230;2023-05-07T07:09:50;3.67;;;1.10;;
37221;SDS011;23119;51.842;-2.230;2023-05-07T07:12:16;4.20;;;0.95;;
37221;SDS011;23119;51.842;-2.230;2023-05-07T07:14:45;6.07;;;1.10;;
37221;SDS011;23119;51.842;-2.230;2023-05-07T07:17:13;6.15;;;0.90;;
37221;SDS011;23119;51.842;-2.230;2023-05-07T07:19:38;6.82;;;1.10;;
37221;SDS011;23119;51.842;-2.230;2023-05-07T07:22:04;4.18;;;1.15;;
37221;SDS011;23119;51.842;-2.230;2023-05-07T07:24:30;2.33;;;0.82;;
37221;SDS011;23119;51.842;-2.230;2023-05-07T07:26:56;4.95;;;0.80;;
37221;SDS011;23119;51.842;-2.230;2023-05-07T07:29:21;4.22;;;0.80;;
37221;SDS011;23119;51.842;-2.230;2023-05-07T07:31:49;4.85;;;0.75;;
37221;SDS011;23119;51.842;-2.230;2023-05-07T07:34:18;7.72;;;0.88;;
37221;SDS011;23119;51.842;-2.230;2023-05-07T07:36:43;4.35;;;0.80;;
37221;SDS011;23119;51.842;-2.230;2023-05-07T07:39:09;2.58;;;0.90;;
37221;SDS011;23119;51.842;-2.230;2023-05-07T07:41:35;2.63;;;0.63;;
37221;SDS011;23119;51.842;-2.230;2023-05-07T07:44:02;3.45;;;0.82;;
37221;SDS011;23119;51.842;-2.230;2023-05-07T07:46:34;5.57;;;0.70;;
37221;SDS011;23119;51.842;-2.230;2023-05-07T07:49:00;2.60;;;1.02;;
37221;SDS011;23119;51.842;-2.230;2023-05-07T07:51:25;2.85;;;0.80;;
37221;SDS011;23119;51.842;-2.230;2023-05-07T07:53:51;4.88;;;0.82;;
37221;SDS011;23119;51.842;-2.230;2023-05-07T07:56:17;6.13;;;0.80;;
37221;SDS011;23119;51.842;-2.230;2023-05-07T07:58:46;2.15;;;0.60;;
37221;SDS011;23119;51.842;-2.230;2023-05-07T08:01:11;4.20;;;0.80;;
37221;SDS011;23119;51.842;-2.230;2023-05-07T08:03:44;5.88;;;0.70;;
37221;SDS011;23119;51.842;-2.230;2023-05-07T08:06:10;5.60;;;0.80;;
37221;SDS011;23119;51.842;-2.230;2023-05-07T08:08:38;3.90;;;0.70;;
37221;SDS011;23119;51.842;-2.230;2023-05-07T08:13:31;4.20;;;0.60;;
37221;SDS011;23119;51.842;-2.230;2023-05-07T08:15:57;2.90;;;0.63;;
37221;SDS011;23119;51.842;-2.230;2023-05-07T08:18:22;4.18;;;0.70;;
37221;SDS011;23119;51.842;-2.230;2023-05-07T08:20:49;3.42;;;0.65;;
37221;SDS011;23119;51.842;-2.230;2023-05-07T08:23:15;2.42;;;0.60;;
37221;SDS011;23119;51.842;-2.230;2023-05-07T08:25:41;4.45;;;0.70;;
37221;SDS011;23119;51.842;-2.230;2023-05-07T08:28:09;2.92;;;0.77;;
37221;SDS011;23119;51.842;-2.230;2023-05-07T08:30:35;6.90;;;0.70;;
37221;SDS011;23119;51.842;-2.230;2023-05-07T08:33:01;2.22;;;0.63;;
37221;SDS011;23119;51.842;-2.230;2023-05-07T08:35:26;2.85;;;0.50;;
37221;SDS011;23119;51.842;-2.230;2023-05-07T08:37:55;4.80;;;1.00;;
37221;SDS011;23119;51.842;-2.230;2023-05-07T08:40:22;4.78;;;1.00;;
37221;SDS011;23119;51.842;-2.230;2023-05-07T08:42:51;3.70;;;0.75;;
37221;SDS011;23119;51.842;-2.230;2023-05-07T08:45:18;2.72;;;0.75;;
37221;SDS011;23119;51.842;-2.230;2023-05-07T08:47:46;3.28;;;1.13;;
37221;SDS011;23119;51.842;-2.230;2023-05-07T08:50:15;4.80;;;1.00;;
37221;SDS011;23119;51.842;-2.230;2023-05-07T08:52:42;4.90;;;0.63;;
37221;SDS011;23119;51.842;-2.230;2023-05-07T08:55:08;4.40;;;1.13;;
37221;SDS011;23119;51.842;-2.230;2023-05-07T08:57:37;5.00;;;0.80;;
37221;SDS011;23119;51.842;-2.230;2023-05-07T09:00:04;4.47;;;0.80;;
37221;SDS011;23119;51.842;-2.230;2023-05-07T09:02:32;3.15;;;1.00;;
37221;SDS011;23119;51.842;-2.230;2023-05-07T09:05:01;2.90;;;1.35;;
37221;SDS011;23119;51.842;-2.230;2023-05-07T09:07:31;3.75;;;0.90;;
37221;SDS011;23119;51.842;-2.230;2023-05-07T09:09:56;4.25;;;0.88;;
37221;SDS011;23119;51.842;-2.230;2023-05-07T09:12:23;2.75;;;0.80;;
37221;SDS011;23119;51.842;-2.230;2023-05-07T09:14:48;3.47;;;0.73;;
37221;SDS011;23119;51.842;-2.230;2023-05-07T09:17:18;4.30;;;0.75;;
37221;SDS011;23119;51.842;-2.230;2023-05-07T09:19:44;5.18;;;1.13;;
37221;SDS011;23119;51.842;-2.230;2023-05-07T09:22:12;5.03;;;1.45;;
37221;SDS011;23119;51.842;-2.230;2023-05-07T09:24:38;4.28;;;1.00;;
37221;SDS011;23119;51.842;-2.230;2023-05-07T09:27:05;7.22;;;1.50;;
37221;SDS011;23119;51.842;-2.230;2023-05-07T09:29:31;3.05;;;0.82;;
37221;SDS011;23119;51.842;-2.230;2023-05-07T09:32:06;3.72;;;1.05;;
37221;SDS011;23119;51.842;-2.230;2023-05-07T09:34:33;4.80;;;1.42;;
37221;SDS011;23119;51.842;-2.230;2023-05-07T09:37:00;3.83;;;1.33;;
37221;SDS011;23119;51.842;-2.230;2023-05-07T09:39:38;3.97;;;0.88;;
37221;SDS011;23119;51.842;-2.230;2023-05-07T09:42:07;4.03;;;1.10;;
37221;SDS011;23119;51.842;-2.230;2023-05-07T09:44:34;7.40;;;1.15;;
37221;SDS011;23119;51.842;-2.230;2023-05-07T09:47:00;3.25;;;0.90;;
37221;SDS011;23119;51.842;-2.230;2023-05-07T09:49:29;4.30;;;1.33;;
37221;SDS011;23119;51.842;-2.230;2023-05-07T09:51:55;2.70;;;0.80;;
37221;SDS011;23119;51.842;-2.230;2023-05-07T09:54:23;2.95;;;1.00;;
37221;SDS011;23119;51.842;-2.230;2023-05-07T09:56:53;3.33;;;1.08;;
37221;SDS011;23119;51.842;-2.230;2023-05-07T09:59:20;2.60;;;1.00;;
37221;SDS011;23119;51.842;-2.230;2023-05-07T10:01:47;2.83;;;0.90;;
37221;SDS011;23119;51.842;-2.230;2023-05-07T10:04:14;4.50;;;0.90;;
37221;SDS011;23119;51.842;-2.230;2023-05-07T10:06:41;2.53;;;0.70;;
37221;SDS011;23119;51.842;-2.230;2023-05-07T10:09:09;2.25;;;0.90;;
37221;SDS011;23119;51.842;-2.230;2023-05-07T10:11:39;2.08;;;0.80;;
37221;SDS011;23119;51.842;-2.230;2023-05-07T10:14:05;2.78;;;1.00;;
37221;SDS011;23119;51.842;-2.230;2023-05-07T10:16:34;3.10;;;1.05;;
37221;SDS011;23119;51.842;-2.230;2023-05-07T10:19:04;3.67;;;0.80;;
37221;SDS011;23119;51.842;-2.230;2023-05-07T10:21:44;2.90;;;0.90;;
37221;SDS011;23119;51.842;-2.230;2023-05-07T10:24:16;3.47;;;0.85;;
37221;SDS011;23119;51.842;-2.230;2023-05-07T10:26:59;2.38;;;1.00;;
37221;SDS011;23119;51.842;-2.230;2023-05-07T10:34:50;3.78;;;0.65;;
37221;SDS011;23119;51.842;-2.230;2023-05-07T10:37:20;4.18;;;1.30;;
37221;SDS011;23119;51.842;-2.230;2023-05-07T10:39:46;2.05;;;0.85;;
37221;SDS011;23119;51.842;-2.230;2023-05-07T10:42:17;2.65;;;0.98;;
37221;SDS011;23119;51.842;-2.230;2023-05-07T10:44:45;4.93;;;1.10;;
37221;SDS011;23119;51.842;-2.230;2023-05-07T10:47:12;3.55;;;1.50;;
37221;SDS011;23119;51.842;-2.230;2023-05-07T10:52:20;4.95;;;1.60;;
37221;SDS011;23119;51.842;-2.230;2023-05-07T10:54:48;5.50;;;1.35;;
37221;SDS011;23119;51.842;-2.230;2023-05-07T10:57:51;6.72;;;1.95;;
37221;SDS011;23119;51.842;-2.230;2023-05-07T11:03:07;3.60;;;1.73;;
37221;SDS011;23119;51.842;-2.230;2023-05-07T11:05:33;3.58;;;1.70;;
37221;SDS011;23119;51.842;-2.230;2023-05-07T11:08:00;3.25;;;1.20;;
37221;SDS011;23119;51.842;-2.230;2023-05-07T11:16:27;5.90;;;1.30;;
37221;SDS011;23119;51.842;-2.230;2023-05-07T11:18:57;3.88;;;1.52;;
37221;SDS011;23119;51.842;-2.230;2023-05-07T11:24:07;2.22;;;1.10;;
37221;SDS011;23119;51.842;-2.230;2023-05-07T11:26:43;5.18;;;1.33;;
37221;SDS011;23119;51.842;-2.230;2023-05-07T11:29:21;3.55;;;1.00;;
37221;SDS011;23119;51.842;-2.230;2023-05-07T11:31:52;4.60;;;1.17;;
37221;SDS011;23119;51.842;-2.230;2023-05-07T11:34:22;4.97;;;1.27;;
37221;SDS011;23119;51.842;-2.230;2023-05-07T11:37:00;4.03;;;1.20;;
37221;SDS011;23119;51.842;-2.230;2023-05-07T11:39:30;3.03;;;1.08;;
37221;SDS011;23119;51.842;-2.230;2023-05-07T11:42:00;3.75;;;0.80;;
37221;SDS011;23119;51.842;-2.230;2023-05-07T11:44:40;2.67;;;0.90;;
37221;SDS011;23119;51.842;-2.230;2023-05-07T11:47:19;3.88;;;1.15;;
37221;SDS011;23119;51.842;-2.230;2023-05-07T11:49:49;4.30;;;0.90;;
37221;SDS011;23119;51.842;-2.230;2023-05-07T11:52:20;2.50;;;0.95;;
37221;SDS011;23119;51.842;-2.230;2023-05-07T11:54:54;4.60;;;0.85;;
37221;SDS011;23119;51.842;-2.230;2023-05-07T11:57:21;2.55;;;0.80;;
37221;SDS011;23119;51.842;-2.230;2023-05-07T11:59:50;4.65;;;0.88;;
37221;SDS011;23119;51.842;-2.230;2023-05-07T12:02:21;5.60;;;1.17;;
37221;SDS011;23119;51.842;-2.230;2023-05-07T12:04:49;3.90;;;0.80;;
37221;SDS011;23119;51.842;-2.230;2023-05-07T12:07:18;2.67;;;0.70;;
37221;SDS011;23119;51.842;-2.230;2023-05-07T12:09:46;2.88;;;0.50;;
37221;SDS011;23119;51.842;-2.230;2023-05-07T12:12:13;2.22;;;0.70;;
37221;SDS011;23119;51.842;-2.230;2023-05-07T12:14:43;2.20;;;0.57;;
37221;SDS011;23119;51.842;-2.230;2023-05-07T12:17:13;4.75;;;0.60;;
37221;SDS011;23119;51.842;-2.230;2023-05-07T12:19:40;1.30;;;0.50;;
37221;SDS011;23119;51.842;-2.230;2023-05-07T12:22:07;2.60;;;0.70;;
37221;SDS011;23119;51.842;-2.230;2023-05-07T12:24:46;2.53;;;0.60;;
37221;SDS011;23119;51.842;-2.230;2023-05-07T12:27:13;4.78;;;0.60;;
37221;SDS011;23119;51.842;-2.230;2023-05-07T12:29:39;2.00;;;0.50;;
37221;SDS011;23119;51.842;-2.230;2023-05-07T12:32:17;3.03;;;0.80;;
37221;SDS011;23119;51.842;-2.230;2023-05-07T12:34:45;2.42;;;0.65;;
37221;SDS011;23119;51.842;-2.230;2023-05-07T12:37:12;2.85;;;0.77;;
37221;SDS011;23119;51.842;-2.230;2023-05-07T12:39:42;17.70;;;3.80;;
37221;SDS011;23119;51.842;-2.230;2023-05-07T12:42:10;2.30;;;0.47;;
37221;SDS011;23119;51.842;-2.230;2023-05-07T12:44:41;1.73;;;0.50;;
37221;SDS011;23119;51.842;-2.230;2023-05-07T12:47:12;2.95;;;0.57;;
37221;SDS011;23119;51.842;-2.230;2023-05-07T12:49:43;3.13;;;0.63;;
37221;SDS011;23119;51.842;-2.230;2023-05-07T12:52:11;4.10;;;0.77;;
37221;SDS011;23119;51.842;-2.230;2023-05-07T12:54:37;3.80;;;0.65;;
37221;SDS011;23119;51.842;-2.230;2023-05-07T12:57:08;4.25;;;0.60;;
37221;SDS011;23119;51.842;-2.230;2023-05-07T12:59:38;3.00;;;0.50;;
37221;SDS011;23119;51.842;-2.230;2023-05-07T13:02:08;2.10;;;0.68;;
37221;SDS011;23119;51.842;-2.230;2023-05-07T13:04:37;3.65;;;0.93;;
37221;SDS011;23119;51.842;-2.230;2023-05-07T13:07:02;3.78;;;0.52;;
37221;SDS011;23119;51.842;-2.230;2023-05-07T13:09:30;1.70;;;0.43;;
37221;SDS011;23119;51.842;-2.230;2023-05-07T13:11:57;2.72;;;0.60;;
37221;SDS011;23119;51.842;-2.230;2023-05-07T13:14:30;2.50;;;0.45;;
37221;SDS011;23119;51.842;-2.230;2023-05-07T13:16:56;6.40;;;0.88;;
37221;SDS011;23119;51.842;-2.230;2023-05-07T13:19:22;2.72;;;0.75;;
37221;SDS011;23119;51.842;-2.230;2023-05-07T13:21:48;4.70;;;0.50;;
37221;SDS011;23119;51.842;-2.230;2023-05-07T13:24:14;3.03;;;0.50;;
37221;SDS011;23119;51.842;-2.230;2023-05-07T13:26:40;3.38;;;0.40;;
37221;SDS011;23119;51.842;-2.230;2023-05-07T13:29:06;3.70;;;0.80;;
37221;SDS011;23119;51.842;-2.230;2023-05-07T13:31:35;3.85;;;0.88;;
37221;SDS011;23119;51.842;-2.230;2023-05-07T13:34:00;3.15;;;0.90;;
37221;SDS011;23119;51.842;-2.230;2023-05-07T13:36:26;2.40;;;0.50;;
37221;SDS011;23119;51.842;-2.230;2023-05-07T13:38:53;5.13;;;0.68;;
37221;SDS011;23119;51.842;-2.230;2023-05-07T13:41:19;3.17;;;0.55;;
37221;SDS011;23119;51.842;-2.230;2023-05-07T13:43:50;2.67;;;0.77;;
37221;SDS011;23119;51.842;-2.230;2023-05-07T13:46:21;3.88;;;0.77;;
37221;SDS011;23119;51.842;-2.230;2023-05-07T13:48:49;2.20;;;0.40;;
37221;SDS011;23119;51.842;-2.230;2023-05-07T13:51:16;2.63;;;0.52;;
37221;SDS011;23119;51.842;-2.230;2023-05-07T13:53:42;4.97;;;0.75;;
37221;SDS011;23119;51.842;-2.230;2023-05-07T13:56:07;2.92;;;0.50;;
37221;SDS011;23119;51.842;-2.230;2023-05-07T13:58:33;3.55;;;0.70;;
37221;SDS011;23119;51.842;-2.230;2023-05-07T14:00:59;3.33;;;0.55;;
37221;SDS011;23119;51.842;-2.230;2023-05-07T14:03:24;5.25;;;1.38;;
37221;SDS011;23119;51.842;-2.230;2023-05-07T14:05:52;5.57;;;0.90;;
37221;SDS011;23119;51.842;-2.230;2023-05-07T14:08:18;3.85;;;0.50;;
37221;SDS011;23119;51.842;-2.230;2023-05-07T14:10:46;9.20;;;6.50;;
37221;SDS011;23119;51.842;-2.230;2023-05-07T14:13:14;4.18;;;0.90;;
37221;SDS011;23119;51.842;-2.230;2023-05-07T14:15:43;8.77;;;5.35;;
37221;SDS011;23119;51.842;-2.230;2023-05-07T14:18:13;2.88;;;1.05;;
37221;SDS011;23119;51.842;-2.230;2023-05-07T14:20:39;4.75;;;2.15;;
37221;SDS011;23119;51.842;-2.230;2023-05-07T14:23:07;3.85;;;1.48;;
37221;SDS011;23119;51.842;-2.230;2023-05-07T14:25:35;3.20;;;1.40;;
37221;SDS011;23119;51.842;-2.230;2023-05-07T14:28:00;4.30;;;1.13;;
37221;SDS011;23119;51.842;-2.230;2023-05-07T14:30:26;11.40;;;7.00;;
37221;SDS011;23119;51.842;-2.230;2023-05-07T14:32:55;4.97;;;2.28;;
37221;SDS011;23119;51.842;-2.230;2023-05-07T14:35:20;5.55;;;2.58;;
37221;SDS011;23119;51.842;-2.230;2023-05-07T14:37:46;6.28;;;1.95;;
37221;SDS011;23119;51.842;-2.230;2023-05-07T14:40:14;6.25;;;2.63;;
37221;SDS011;23119;51.842;-2.230;2023-05-07T14:42:40;2.95;;;1.13;;
37221;SDS011;23119;51.842;-2.230;2023-05-07T14:45:06;4.20;;;1.70;;
37221;SDS011;23119;51.842;-2.230;2023-05-07T14:47:32;4.10;;;1.52;;
37221;SDS011;23119;51.842;-2.230;2023-05-07T14:49:58;5.28;;;1.60;;
37221;SDS011;23119;51.842;-2.230;2023-05-07T14:52:25;6.03;;;2.22;;